sensor_id;sensor_type;location;lat;lon;timestamp;P1;durP1;ratioP1;P2;durP2;ratioP2
38783;SDS011;24531;45.502;12.238;2024-03-06T00:00:27;5.10;;;3.17;;
38783;SDS011;24531;45.502;12.238;2024-03-06T00:02:53;4.72;;;2.40;;
38783;SDS011;24531;45.502;12.238;2024-03-06T00:05:20;3.75;;;2.78;;
38783;SDS011;24531;45.502;12.238;2024-03-06T00:07:45;5.82;;;2.80;;
38783;SDS011;24531;45.502;12.238;2024-03-06T00:10:11;5.45;;;3.13;;
38783;SDS011;24531;45.502;12.238;2024-03-06T00:12:37;4.40;;;2.63;;
38783;SDS011;24531;45.502;12.238;2024-03-06T00:15:03;4.95;;;2.80;;
38783;SDS011;24531;45.502;12.238;2024-03-06T00:17:29;3.10;;;2.20;;
38783;SDS011;24531;45.502;12.238;2024-03-06T00:19:54;3.72;;;2.30;;
38783;SDS011;24531;45.502;12.238;2024-03-06T00:22:20;2.10;;;1.75;;
38783;SDS011;24531;45.502;12.238;2024-03-06T00:24:45;2.92;;;1.92;;
38783;SDS011;24531;45.502;12.238;2024-03-06T00:27:13;2.83;;;2.08;;
38783;SDS011;24531;45.502;12.238;2024-03-06T00:29:38;3.88;;;2.45;;
38783;SDS011;24531;45.502;12.238;2024-03-06T00:32:04;3.85;;;2.08;;
38783;SDS011;24531;45.502;12.238;2024-03-06T00:34:30;6.13;;;3.25;;
38783;SDS011;24531;45.502;12.238;2024-03-06T00:36:56;3.10;;;2.38;;
38783;SDS011;24531;45.502;12.238;2024-03-06T00:39:22;3.15;;;2.05;;
38783;SDS011;24531;45.502;12.238;2024-03-06T00:41:48;2.95;;;2.08;;
38783;SDS011;24531;45.502;12.238;2024-03-06T00:44:15;3.20;;;1.70;;
38783;SDS011;24531;45.502;12.238;2024-03-06T00:46:42;2.78;;;2.03;;
38783;SDS011;24531;45.502;12.238;2024-03-06T00:49:08;3.28;;;2.10;;
38783;SDS011;24531;45.502;12.238;2024-03-06T00:51:33;4.55;;;2.42;;
38783;SDS011;24531;45.502;12.238;2024-03-06T00:54:02;3.20;;;2.10;;
38783;SDS011;24531;45.502;12.238;2024-03-06T00:56:28;5.03;;;2.63;;
38783;SDS011;24531;45.502;12.238;2024-03-06T00:58:53;3.45;;;2.45;;
38783;SDS011;24531;45.502;12.238;2024-03-06T01:01:19;5.80;;;3.35;;
38783;SDS011;24531;45.502;12.238;2024-03-06T01:03:44;6.70;;;4.68;;
38783;SDS011;24531;45.502;12.238;2024-03-06T01:06:10;7.97;;;5.05;;
38783;SDS011;24531;45.502;12.238;2024-03-06T01:08:35;7.38;;;4.72;;
38783;SDS011;24531;45.502;12.238;2024-03-06T01:11:01;9.23;;;5.60;;
38783;SDS011;24531;45.502;12.238;2024-03-06T01:13:29;7.90;;;5.07;;
38783;SDS011;24531;45.502;12.238;2024-03-06T01:15:55;9.77;;;5.85;;
38783;SDS011;24531;45.502;12.238;2024-03-06T01:18:21;6.85;;;5.22;;
38783;SDS011;24531;45.502;12.238;2024-03-06T01:20:46;7.88;;;4.85;;
38783;SDS011;24531;45.502;12.238;2024-03-06T01:23:12;6.32;;;4.13;;
38783;SDS011;24531;45.502;12.238;2024-03-06T01:25:37;5.97;;;4.03;;
38783;SDS011;24531;45.502;12.238;2024-03-06T01:28:03;7.15;;;4.10;;
38783;SDS011;24531;45.502;12.238;2024-03-06T01:30:29;5.97;;;3.90;;
38783;SDS011;24531;45.502;12.238;2024-03-06T01:32:54;4.57;;;3.05;;
38783;SDS011;24531;45.502;12.238;2024-03-06T01:35:20;3.72;;;2.67;;
38783;SDS011;24531;45.502;12.238;2024-03-06T01:37:46;3.70;;;2.20;;
38783;SDS011;24531;45.502;12.238;2024-03-06T01:40:11;4.13;;;2.70;;
38783;SDS011;24531;45.502;12.238;2024-03-06T01:42:37;3.40;;;2.00;;
38783;SDS011;24531;45.502;12.238;2024-03-06T01:45:03;2.47;;;1.77;;
38783;SDS011;24531;45.502;12.238;2024-03-06T01:47:29;2.85;;;1.73;;
38783;SDS011;24531;45.502;12.238;2024-03-06T01:49:55;2.47;;;1.80;;
38783;SDS011;24531;45.502;12.238;2024-03-06T01:52:21;1.92;;;1.38;;
38783;SDS011;24531;45.502;12.238;2024-03-06T01:54:47;2.53;;;1.60;;
38783;SDS011;24531;45.502;12.238;2024-03-06T01:57:15;2.35;;;1.50;;
38783;SDS011;24531;45.502;12.238;2024-03-06T01:59:42;1.90;;;1.35;;
38783;SDS011;24531;45.502;12.238;2024-03-06T02:02:08;1.48;;;1.27;;
38783;SDS011;24531;45.502;12.238;2024-03-06T02:04:36;2.22;;;1.33;;
38783;SDS011;24531;45.502;12.238;2024-03-06T02:07:02;1.48;;;1.10;;
38783;SDS011;24531;45.502;12.238;2024-03-06T02:09:33;1.20;;;1.05;;
38783;SDS011;24531;45.502;12.238;2024-03-06T02:11:58;1.27;;;0.90;;
38783;SDS011;24531;45.502;12.238;2024-03-06T02:14:24;1.45;;;1.00;;
38783;SDS011;24531;45.502;12.238;2024-03-06T02:16:49;2.33;;;1.33;;
38783;SDS011;24531;45.502;12.238;2024-03-06T02:19:15;1.25;;;1.08;;
38783;SDS011;24531;45.502;12.238;2024-03-06T02:21:41;2.03;;;1.30;;
38783;SDS011;24531;45.502;12.238;2024-03-06T02:24:06;1.88;;;1.13;;
38783;SDS011;24531;45.502;12.238;2024-03-06T02:26:36;1.33;;;1.00;;
38783;SDS011;24531;45.502;12.238;2024-03-06T02:29:01;1.30;;;0.88;;
38783;SDS011;24531;45.502;12.238;2024-03-06T02:31:27;1.48;;;1.13;;
38783;SDS011;24531;45.502;12.238;2024-03-06T02:33:53;1.02;;;0.93;;
38783;SDS011;24531;45.502;12.238;2024-03-06T02:36:19;0.95;;;0.80;;
38783;SDS011;24531;45.502;12.238;2024-03-06T02:38:45;2.22;;;1.00;;
38783;SDS011;24531;45.502;12.238;2024-03-06T02:41:11;4.00;;;0.82;;
38783;SDS011;24531;45.502;12.238;2024-03-06T02:43:37;1.48;;;0.90;;
38783;SDS011;24531;45.502;12.238;2024-03-06T02:46:03;1.08;;;0.70;;
38783;SDS011;24531;45.502;12.238;2024-03-06T02:48:29;1.23;;;0.80;;
38783;SDS011;24531;45.502;12.238;2024-03-06T02:50:55;0.52;;;0.50;;
38783;SDS011;24531;45.502;12.238;2024-03-06T02:53:21;0.93;;;0.70;;
38783;SDS011;24531;45.502;12.238;2024-03-06T02:55:47;1.10;;;0.75;;
38783;SDS011;24531;45.502;12.238;2024-03-06T02:58:13;1.40;;;0.93;;
38783;SDS011;24531;45.502;12.238;2024-03-06T03:00:39;0.70;;;0.70;;
38783;SDS011;24531;45.502;12.238;2024-03-06T03:03:06;0.90;;;0.63;;
38783;SDS011;24531;45.502;12.238;2024-03-06T03:05:31;1.13;;;0.70;;
38783;SDS011;24531;45.502;12.238;2024-03-06T03:07:58;1.77;;;1.05;;
38783;SDS011;24531;45.502;12.238;2024-03-06T03:10:24;1.25;;;0.70;;
38783;SDS011;24531;45.502;12.238;2024-03-06T03:12:50;1.35;;;0.95;;
38783;SDS011;24531;45.502;12.238;2024-03-06T03:15:16;1.13;;;0.85;;
38783;SDS011;24531;45.502;12.238;2024-03-06T03:17:42;2.00;;;0.50;;
38783;SDS011;24531;45.502;12.238;2024-03-06T03:20:07;1.17;;;0.70;;
38783;SDS011;24531;45.502;12.238;2024-03-06T03:22:39;1.27;;;0.65;;
38783;SDS011;24531;45.502;12.238;2024-03-06T03:25:08;0.50;;;0.50;;
38783;SDS011;24531;45.502;12.238;2024-03-06T03:27:36;0.82;;;0.70;;
38783;SDS011;24531;45.502;12.238;2024-03-06T03:30:03;0.93;;;0.68;;
38783;SDS011;24531;45.502;12.238;2024-03-06T03:32:30;1.55;;;0.65;;
38783;SDS011;24531;45.502;12.238;2024-03-06T03:34:55;1.10;;;0.80;;
38783;SDS011;24531;45.502;12.238;2024-03-06T03:37:21;0.70;;;0.57;;
38783;SDS011;24531;45.502;12.238;2024-03-06T03:39:47;0.88;;;0.70;;
38783;SDS011;24531;45.502;12.238;2024-03-06T03:42:12;1.58;;;0.60;;
38783;SDS011;24531;45.502;12.238;2024-03-06T03:44:38;1.15;;;0.80;;
38783;SDS011;24531;45.502;12.238;2024-03-06T03:47:04;0.65;;;0.50;;
38783;SDS011;24531;45.502;12.238;2024-03-06T03:49:30;1.27;;;0.85;;
38783;SDS011;24531;45.502;12.238;2024-03-06T03:51:56;1.70;;;0.93;;
38783;SDS011;24531;45.502;12.238;2024-03-06T03:54:21;0.88;;;0.50;;
38783;SDS011;24531;45.502;12.238;2024-03-06T03:56:47;0.57;;;0.50;;
38783;SDS011;24531;45.502;12.238;2024-03-06T03:59:13;1.00;;;0.40;;
38783;SDS011;24531;45.502;12.238;2024-03-06T04:01:39;0.60;;;0.60;;
38783;SDS011;24531;45.502;12.238;2024-03-06T04:04:04;0.65;;;0.50;;
38783;SDS011;24531;45.502;12.238;2024-03-06T04:06:32;0.50;;;0.40;;
38783;SDS011;24531;45.502;12.238;2024-03-06T04:08:57;0.60;;;0.40;;
38783;SDS011;24531;45.502;12.238;2024-03-06T04:11:23;0.73;;;0.50;;
38783;SDS011;24531;45.502;12.238;2024-03-06T04:13:48;0.30;;;0.30;;
38783;SDS011;24531;45.502;12.238;2024-03-06T04:16:17;0.60;;;0.40;;
38783;SDS011;24531;45.502;12.238;2024-03-06T04:18:44;0.52;;;0.38;;
38783;SDS011;24531;45.502;12.238;2024-03-06T04:21:10;0.63;;;0.40;;
38783;SDS011;24531;45.502;12.238;2024-03-06T04:23:36;0.63;;;0.30;;
38783;SDS011;24531;45.502;12.238;2024-03-06T04:26:02;0.70;;;0.35;;
38783;SDS011;24531;45.502;12.238;2024-03-06T04:28:28;1.13;;;0.85;;
38783;SDS011;24531;45.502;12.238;2024-03-06T04:30:54;0.85;;;0.17;;
38783;SDS011;24531;45.502;12.238;2024-03-06T04:33:20;1.48;;;0.20;;
38783;SDS011;24531;45.502;12.238;2024-03-06T04:35:46;0.20;;;0.20;;
38783;SDS011;24531;45.502;12.238;2024-03-06T04:38:12;0.20;;;0.20;;
38783;SDS011;24531;45.502;12.238;2024-03-06T04:40:37;0.00;;;0.00;;
38783;SDS011;24531;45.502;12.238;2024-03-06T04:43:04;0.15;;;0.15;;
38783;SDS011;24531;45.502;12.238;2024-03-06T04:45:29;0.20;;;0.20;;
38783;SDS011;24531;45.502;12.238;2024-03-06T04:47:55;0.30;;;0.20;;
38783;SDS011;24531;45.502;12.238;2024-03-06T04:50:21;2.15;;;0.30;;
38783;SDS011;24531;45.502;12.238;2024-03-06T04:52:46;0.10;;;0.10;;
38783;SDS011;24531;45.502;12.238;2024-03-06T04:55:12;0.20;;;0.13;;
38783;SDS011;24531;45.502;12.238;2024-03-06T04:57:40;0.28;;;0.28;;
38783;SDS011;24531;45.502;12.238;2024-03-06T05:00:08;0.40;;;0.20;;
38783;SDS011;24531;45.502;12.238;2024-03-06T05:02:35;2.20;;;0.20;;
38783;SDS011;24531;45.502;12.238;2024-03-06T05:05:02;0.28;;;0.22;;
38783;SDS011;24531;45.502;12.238;2024-03-06T05:07:29;0.32;;;0.30;;
38783;SDS011;24531;45.502;12.238;2024-03-06T05:09:55;0.30;;;0.30;;
38783;SDS011;24531;45.502;12.238;2024-03-06T05:12:22;0.45;;;0.20;;
38783;SDS011;24531;45.502;12.238;2024-03-06T05:14:51;0.22;;;0.20;;
38783;SDS011;24531;45.502;12.238;2024-03-06T05:17:17;0.57;;;0.20;;
38783;SDS011;24531;45.502;12.238;2024-03-06T05:19:44;0.32;;;0.30;;
38783;SDS011;24531;45.502;12.238;2024-03-06T05:22:10;0.38;;;0.30;;
38783;SDS011;24531;45.502;12.238;2024-03-06T05:24:36;1.05;;;0.60;;
38783;SDS011;24531;45.502;12.238;2024-03-06T05:27:02;0.38;;;0.38;;
38783;SDS011;24531;45.502;12.238;2024-03-06T05:29:28;0.40;;;0.40;;
38783;SDS011;24531;45.502;12.238;2024-03-06T05:31:53;0.82;;;0.50;;
38783;SDS011;24531;45.502;12.238;2024-03-06T05:34:21;0.60;;;0.40;;
38783;SDS011;24531;45.502;12.238;2024-03-06T05:36:47;0.30;;;0.30;;
38783;SDS011;24531;45.502;12.238;2024-03-06T05:39:13;1.73;;;0.50;;
38783;SDS011;24531;45.502;12.238;2024-03-06T05:41:39;1.10;;;0.77;;
38783;SDS011;24531;45.502;12.238;2024-03-06T05:44:06;2.17;;;0.70;;
38783;SDS011;24531;45.502;12.238;2024-03-06T05:46:31;2.97;;;0.95;;
38783;SDS011;24531;45.502;12.238;2024-03-06T05:48:57;1.17;;;0.60;;
38783;SDS011;24531;45.502;12.238;2024-03-06T05:51:23;2.83;;;1.10;;
38783;SDS011;24531;45.502;12.238;2024-03-06T05:53:49;2.58;;;1.13;;
38783;SDS011;24531;45.502;12.238;2024-03-06T05:56:14;3.38;;;1.25;;
38783;SDS011;24531;45.502;12.238;2024-03-06T05:58:42;2.08;;;1.30;;
38783;SDS011;24531;45.502;12.238;2024-03-06T06:01:07;1.80;;;1.30;;
38783;SDS011;24531;45.502;12.238;2024-03-06T06:03:33;1.65;;;1.25;;
38783;SDS011;24531;45.502;12.238;2024-03-06T06:05:59;2.42;;;0.80;;
38783;SDS011;24531;45.502;12.238;2024-03-06T06:08:24;1.10;;;1.00;;
38783;SDS011;24531;45.502;12.238;2024-03-06T06:10:50;1.90;;;0.93;;
38783;SDS011;24531;45.502;12.238;2024-03-06T06:13:19;1.30;;;0.77;;
38783;SDS011;24531;45.502;12.238;2024-03-06T06:15:46;1.38;;;0.85;;
38783;SDS011;24531;45.502;12.238;2024-03-06T06:18:12;1.13;;;0.82;;
38783;SDS011;24531;45.502;12.238;2024-03-06T06:20:37;1.15;;;0.75;;
38783;SDS011;24531;45.502;12.238;2024-03-06T06:23:03;1.98;;;0.80;;
38783;SDS011;24531;45.502;12.238;2024-03-06T06:25:29;1.52;;;0.80;;
38783;SDS011;24531;45.502;12.238;2024-03-06T06:27:55;2.65;;;1.42;;
38783;SDS011;24531;45.502;12.238;2024-03-06T06:30:20;1.13;;;0.93;;
38783;SDS011;24531;45.502;12.238;2024-03-06T06:32:46;1.33;;;0.93;;
38783;SDS011;24531;45.502;12.238;2024-03-06T06:35:11;2.17;;;1.48;;
38783;SDS011;24531;45.502;12.238;2024-03-06T06:37:38;2.40;;;1.65;;
38783;SDS011;24531;45.502;12.238;2024-03-06T06:40:05;2.78;;;1.80;;
38783;SDS011;24531;45.502;12.238;2024-03-06T06:42:32;3.72;;;2.00;;
38783;SDS011;24531;45.502;12.238;2024-03-06T06:44:59;5.43;;;1.83;;
38783;SDS011;24531;45.502;12.238;2024-03-06T06:47:25;5.43;;;1.92;;
38783;SDS011;24531;45.502;12.238;2024-03-06T06:49:52;2.92;;;2.10;;
38783;SDS011;24531;45.502;12.238;2024-03-06T06:52:17;2.42;;;1.83;;
38783;SDS011;24531;45.502;12.238;2024-03-06T06:54:44;2.15;;;1.52;;
38783;SDS011;24531;45.502;12.238;2024-03-06T06:57:10;1.45;;;1.23;;
38783;SDS011;24531;45.502;12.238;2024-03-06T06:59:35;2.15;;;1.33;;
38783;SDS011;24531;45.502;12.238;2024-03-06T07:02:02;2.65;;;1.77;;
38783;SDS011;24531;45.502;12.238;2024-03-06T07:04:28;4.65;;;1.77;;
38783;SDS011;24531;45.502;12.238;2024-03-06T07:06:54;4.07;;;2.28;;
38783;SDS011;24531;45.502;12.238;2024-03-06T07:09:19;5.25;;;2.67;;
38783;SDS011;24531;45.502;12.238;2024-03-06T07:11:45;2.58;;;2.30;;
38783;SDS011;24531;45.502;12.238;2024-03-06T07:14:13;3.38;;;2.63;;
38783;SDS011;24531;45.502;12.238;2024-03-06T07:16:43;3.63;;;1.98;;
38783;SDS011;24531;45.502;12.238;2024-03-06T07:19:09;1.85;;;1.55;;
38783;SDS011;24531;45.502;12.238;2024-03-06T07:21:35;3.55;;;1.63;;
38783;SDS011;24531;45.502;12.238;2024-03-06T07:24:01;5.00;;;2.38;;
38783;SDS011;24531;45.502;12.238;2024-03-06T07:26:26;3.17;;;2.10;;
38783;SDS011;24531;45.502;12.238;2024-03-06T07:28:54;2.72;;;2.25;;
38783;SDS011;24531;45.502;12.238;2024-03-06T07:31:20;3.22;;;2.20;;
38783;SDS011;24531;45.502;12.238;2024-03-06T07:33:46;2.08;;;1.77;;
38783;SDS011;24531;45.502;12.238;2024-03-06T07:36:12;2.55;;;1.95;;
38783;SDS011;24531;45.502;12.238;2024-03-06T07:38:37;2.50;;;1.40;;
38783;SDS011;24531;45.502;12.238;2024-03-06T07:41:03;2.72;;;1.77;;
38783;SDS011;24531;45.502;12.238;2024-03-06T07:43:28;3.60;;;1.98;;
38783;SDS011;24531;45.502;12.238;2024-03-06T07:45:54;2.88;;;2.00;;
38783;SDS011;24531;45.502;12.238;2024-03-06T07:48:20;2.72;;;2.03;;
38783;SDS011;24531;45.502;12.238;2024-03-06T07:50:46;3.05;;;2.22;;
38783;SDS011;24531;45.502;12.238;2024-03-06T07:53:11;2.13;;;1.70;;
38783;SDS011;24531;45.502;12.238;2024-03-06T07:55:37;2.78;;;2.00;;
38783;SDS011;24531;45.502;12.238;2024-03-06T07:58:04;5.30;;;2.17;;
38783;SDS011;24531;45.502;12.238;2024-03-06T08:00:29;5.22;;;2.10;;
38783;SDS011;24531;45.502;12.238;2024-03-06T08:02:56;6.57;;;2.80;;
38783;SDS011;24531;45.502;12.238;2024-03-06T08:05:22;4.65;;;2.45;;
38783;SDS011;24531;45.502;12.238;2024-03-06T08:07:47;2.17;;;1.98;;
38783;SDS011;24531;45.502;12.238;2024-03-06T08:10:13;2.15;;;1.60;;
38783;SDS011;24531;45.502;12.238;2024-03-06T08:12:40;2.38;;;1.77;;
38783;SDS011;24531;45.502;12.238;2024-03-06T08:15:07;3.67;;;2.05;;
38783;SDS011;24531;45.502;12.238;2024-03-06T08:17:35;2.70;;;1.95;;
38783;SDS011;24531;45.502;12.238;2024-03-06T08:20:01;2.80;;;1.70;;
38783;SDS011;24531;45.502;12.238;2024-03-06T08:22:32;1.35;;;1.25;;
38783;SDS011;24531;45.502;12.238;2024-03-06T08:25:05;1.30;;;1.20;;
38783;SDS011;24531;45.502;12.238;2024-03-06T08:27:32;3.20;;;1.60;;
38783;SDS011;24531;45.502;12.238;2024-03-06T08:29:58;3.63;;;1.38;;
38783;SDS011;24531;45.502;12.238;2024-03-06T08:32:24;1.88;;;1.27;;
38783;SDS011;24531;45.502;12.238;2024-03-06T08:34:50;2.90;;;1.13;;
38783;SDS011;24531;45.502;12.238;2024-03-06T08:37:15;1.38;;;1.08;;
38783;SDS011;24531;45.502;12.238;2024-03-06T08:39:41;1.20;;;0.90;;
38783;SDS011;24531;45.502;12.238;2024-03-06T08:42:06;0.60;;;0.60;;
38783;SDS011;24531;45.502;12.238;2024-03-06T08:44:33;0.75;;;0.75;;
38783;SDS011;24531;45.502;12.238;2024-03-06T08:46:59;0.82;;;0.60;;
38783;SDS011;24531;45.502;12.238;2024-03-06T08:49:24;2.03;;;0.70;;
38783;SDS011;24531;45.502;12.238;2024-03-06T08:51:50;0.82;;;0.80;;
38783;SDS011;24531;45.502;12.238;2024-03-06T08:54:15;1.27;;;0.98;;
38783;SDS011;24531;45.502;12.238;2024-03-06T08:56:43;3.40;;;1.02;;
38783;SDS011;24531;45.502;12.238;2024-03-06T08:59:09;1.00;;;0.82;;
38783;SDS011;24531;45.502;12.238;2024-03-06T09:01:34;1.48;;;0.70;;
38783;SDS011;24531;45.502;12.238;2024-03-06T09:04:00;0.82;;;0.52;;
38783;SDS011;24531;45.502;12.238;2024-03-06T09:06:25;4.68;;;2.90;;
38783;SDS011;24531;45.502;12.238;2024-03-06T09:08:52;5.22;;;3.55;;
38783;SDS011;24531;45.502;12.238;2024-03-06T09:11:18;5.05;;;2.95;;
38783;SDS011;24531;45.502;12.238;2024-03-06T09:13:43;7.13;;;3.20;;
38783;SDS011;24531;45.502;12.238;2024-03-06T09:16:09;5.93;;;3.35;;
38783;SDS011;24531;45.502;12.238;2024-03-06T09:18:34;6.50;;;3.30;;
38783;SDS011;24531;45.502;12.238;2024-03-06T09:21:00;7.05;;;3.30;;
38783;SDS011;24531;45.502;12.238;2024-03-06T09:23:27;6.05;;;3.50;;
38783;SDS011;24531;45.502;12.238;2024-03-06T09:25:55;4.78;;;3.17;;
38783;SDS011;24531;45.502;12.238;2024-03-06T09:28:21;8.05;;;3.55;;
38783;SDS011;24531;45.502;12.238;2024-03-06T09:30:47;8.98;;;3.78;;
38783;SDS011;24531;45.502;12.238;2024-03-06T09:33:13;6.45;;;3.53;;
38783;SDS011;24531;45.502;12.238;2024-03-06T09:35:39;7.88;;;3.95;;
38783;SDS011;24531;45.502;12.238;2024-03-06T09:38:10;11.55;;;3.67;;
38783;SDS011;24531;45.502;12.238;2024-03-06T09:40:38;7.57;;;4.47;;
38783;SDS011;24531;45.502;12.238;2024-03-06T09:43:05;5.22;;;3.30;;
38783;SDS011;24531;45.502;12.238;2024-03-06T09:45:31;8.60;;;4.00;;
38783;SDS011;24531;45.502;12.238;2024-03-06T09:47:58;8.73;;;4.53;;
38783;SDS011;24531;45.502;12.238;2024-03-06T09:50:24;7.07;;;3.13;;
38783;SDS011;24531;45.502;12.238;2024-03-06T09:52:51;7.10;;;3.70;;
38783;SDS011;24531;45.502;12.238;2024-03-06T09:55:19;9.18;;;3.58;;
38783;SDS011;24531;45.502;12.238;2024-03-06T09:57:45;5.82;;;3.25;;
38783;SDS011;24531;45.502;12.238;2024-03-06T10:00:11;8.27;;;4.95;;
38783;SDS011;24531;45.502;12.238;2024-03-06T10:02:38;8.82;;;3.15;;
38783;SDS011;24531;45.502;12.238;2024-03-06T10:05:21;7.07;;;3.40;;
38783;SDS011;24531;45.502;12.238;2024-03-06T10:07:47;9.85;;;3.53;;
38783;SDS011;24531;45.502;12.238;2024-03-06T10:10:14;7.05;;;3.90;;
38783;SDS011;24531;45.502;12.238;2024-03-06T10:12:41;7.28;;;2.80;;
38783;SDS011;24531;45.502;12.238;2024-03-06T10:15:07;9.70;;;3.92;;
38783;SDS011;24531;45.502;12.238;2024-03-06T10:17:37;6.03;;;3.03;;
38783;SDS011;24531;45.502;12.238;2024-03-06T10:20:24;9.30;;;3.13;;
38783;SDS011;24531;45.502;12.238;2024-03-06T10:22:49;7.57;;;3.03;;
38783;SDS011;24531;45.502;12.238;2024-03-06T10:25:20;8.45;;;3.40;;
38783;SDS011;24531;45.502;12.238;2024-03-06T10:28:31;6.15;;;3.22;;
38783;SDS011;24531;45.502;12.238;2024-03-06T10:30:36;9.90;;;4.03;;
38783;SDS011;24531;45.502;12.238;2024-03-06T10:33:11;6.50;;;2.95;;
38783;SDS011;24531;45.502;12.238;2024-03-06T10:35:39;6.82;;;3.83;;
38783;SDS011;24531;45.502;12.238;2024-03-06T10:38:06;6.55;;;3.75;;
38783;SDS011;24531;45.502;12.238;2024-03-06T10:40:34;13.65;;;6.00;;
38783;SDS011;24531;45.502;12.238;2024-03-06T10:43:02;12.02;;;4.82;;
38783;SDS011;24531;45.502;12.238;2024-03-06T10:45:40;8.52;;;4.68;;
38783;SDS011;24531;45.502;12.238;2024-03-06T10:48:25;10.48;;;6.20;;
38783;SDS011;24531;45.502;12.238;2024-03-06T10:50:53;8.65;;;5.00;;
38783;SDS011;24531;45.502;12.238;2024-03-06T10:53:20;10.65;;;5.78;;
38783;SDS011;24531;45.502;12.238;2024-03-06T10:55:48;17.40;;;6.35;;
38783;SDS011;24531;45.502;12.238;2024-03-06T10:58:15;7.90;;;4.82;;
38783;SDS011;24531;45.502;12.238;2024-03-06T11:00:44;10.23;;;5.65;;
38783;SDS011;24531;45.502;12.238;2024-03-06T11:03:13;11.20;;;4.93;;
38783;SDS011;24531;45.502;12.238;2024-03-06T11:05:39;10.13;;;5.55;;
38783;SDS011;24531;45.502;12.238;2024-03-06T11:08:10;11.40;;;5.38;;
38783;SDS011;24531;45.502;12.238;2024-03-06T11:10:37;11.00;;;4.78;;
38783;SDS011;24531;45.502;12.238;2024-03-06T11:15:46;10.13;;;5.22;;
38783;SDS011;24531;45.502;12.238;2024-03-06T11:20:58;7.22;;;4.93;;
38783;SDS011;24531;45.502;12.238;2024-03-06T11:26:47;9.50;;;4.70;;
38783;SDS011;24531;45.502;12.238;2024-03-06T11:29:18;8.40;;;5.40;;
38783;SDS011;24531;45.502;12.238;2024-03-06T11:34:42;8.63;;;4.72;;
38783;SDS011;24531;45.502;12.238;2024-03-06T11:37:08;9.98;;;4.72;;
38783;SDS011;24531;45.502;12.238;2024-03-06T11:39:37;7.88;;;4.28;;
38783;SDS011;24531;45.502;12.238;2024-03-06T11:42:04;12.35;;;4.85;;
38783;SDS011;24531;45.502;12.238;2024-03-06T11:44:33;7.57;;;4.22;;
38783;SDS011;24531;45.502;12.238;2024-03-06T11:47:00;8.88;;;4.65;;
38783;SDS011;24531;45.502;12.238;2024-03-06T11:49:27;14.57;;;5.43;;
38783;SDS011;24531;45.502;12.238;2024-03-06T11:51:54;12.20;;;5.25;;
38783;SDS011;24531;45.502;12.238;2024-03-06T11:54:22;8.18;;;4.22;;
38783;SDS011;24531;45.502;12.238;2024-03-06T11:56:51;8.30;;;3.60;;
38783;SDS011;24531;45.502;12.238;2024-03-06T11:59:20;6.15;;;4.28;;
38783;SDS011;24531;45.502;12.238;2024-03-06T12:01:50;7.88;;;3.55;;
38783;SDS011;24531;45.502;12.238;2024-03-06T12:04:18;11.20;;;5.18;;
38783;SDS011;24531;45.502;12.238;2024-03-06T12:06:44;11.60;;;6.18;;
38783;SDS011;24531;45.502;12.238;2024-03-06T12:09:10;10.20;;;5.80;;
38783;SDS011;24531;45.502;12.238;2024-03-06T12:11:36;7.53;;;5.82;;
38783;SDS011;24531;45.502;12.238;2024-03-06T12:14:02;14.73;;;6.07;;
38783;SDS011;24531;45.502;12.238;2024-03-06T12:16:28;9.13;;;5.82;;
38783;SDS011;24531;45.502;12.238;2024-03-06T12:18:57;9.55;;;5.88;;
38783;SDS011;24531;45.502;12.238;2024-03-06T12:21:32;7.47;;;5.68;;
38783;SDS011;24531;45.502;12.238;2024-03-06T12:24:02;9.10;;;5.90;;
38783;SDS011;24531;45.502;12.238;2024-03-06T12:26:29;8.48;;;5.85;;
38783;SDS011;24531;45.502;12.238;2024-03-06T12:29:17;9.05;;;6.38;;
38783;SDS011;24531;45.502;12.238;2024-03-06T12:31:42;8.45;;;6.05;;
38783;SDS011;24531;45.502;12.238;2024-03-06T12:34:08;10.38;;;6.15;;
38783;SDS011;24531;45.502;12.238;2024-03-06T12:36:39;9.13;;;5.30;;
38783;SDS011;24531;45.502;12.238;2024-03-06T12:39:05;8.02;;;5.28;;
38783;SDS011;24531;45.502;12.238;2024-03-06T12:41:38;8.25;;;6.05;;
38783;SDS011;24531;45.502;12.238;2024-03-06T12:44:05;8.27;;;6.03;;
38783;SDS011;24531;45.502;12.238;2024-03-06T12:46:31;10.35;;;6.90;;
38783;SDS011;24531;45.502;12.238;2024-03-06T12:48:57;8.45;;;5.57;;
38783;SDS011;24531;45.502;12.238;2024-03-06T12:51:23;10.48;;;5.65;;
38783;SDS011;24531;45.502;12.238;2024-03-06T12:53:49;8.20;;;5.55;;
38783;SDS011;24531;45.502;12.238;2024-03-06T12:56:15;13.75;;;5.43;;
38783;SDS011;24531;45.502;12.238;2024-03-06T12:58:40;8.77;;;5.78;;
38783;SDS011;24531;45.502;12.238;2024-03-06T13:01:06;11.00;;;7.45;;
38783;SDS011;24531;45.502;12.238;2024-03-06T13:03:32;10.13;;;6.35;;
38783;SDS011;24531;45.502;12.238;2024-03-06T13:05:57;9.45;;;6.13;;
38783;SDS011;24531;45.502;12.238;2024-03-06T13:08:23;9.98;;;6.38;;
38783;SDS011;24531;45.502;12.238;2024-03-06T13:10:49;9.98;;;5.90;;
38783;SDS011;24531;45.502;12.238;2024-03-06T13:13:14;9.13;;;6.40;;
38783;SDS011;24531;45.502;12.238;2024-03-06T13:15:40;7.65;;;5.45;;
38783;SDS011;24531;45.502;12.238;2024-03-06T13:18:05;8.38;;;5.22;;
38783;SDS011;24531;45.502;12.238;2024-03-06T13:20:34;6.93;;;4.68;;
38783;SDS011;24531;45.502;12.238;2024-03-06T13:23:00;8.88;;;6.00;;
38783;SDS011;24531;45.502;12.238;2024-03-06T13:25:26;10.27;;;5.78;;
38783;SDS011;24531;45.502;12.238;2024-03-06T13:27:54;9.43;;;5.53;;
38783;SDS011;24531;45.502;12.238;2024-03-06T13:30:20;7.90;;;5.25;;
38783;SDS011;24531;45.502;12.238;2024-03-06T13:32:46;6.95;;;5.03;;
38783;SDS011;24531;45.502;12.238;2024-03-06T13:35:12;9.43;;;5.55;;
38783;SDS011;24531;45.502;12.238;2024-03-06T13:37:39;7.60;;;4.82;;
38783;SDS011;24531;45.502;12.238;2024-03-06T13:40:08;8.05;;;5.13;;
38783;SDS011;24531;45.502;12.238;2024-03-06T13:42:38;6.40;;;4.60;;
38783;SDS011;24531;45.502;12.238;2024-03-06T13:45:04;7.18;;;4.38;;
38783;SDS011;24531;45.502;12.238;2024-03-06T13:47:31;8.18;;;4.70;;
38783;SDS011;24531;45.502;12.238;2024-03-06T13:49:56;8.48;;;5.07;;
38783;SDS011;24531;45.502;12.238;2024-03-06T13:52:22;6.50;;;4.88;;
38783;SDS011;24531;45.502;12.238;2024-03-06T13:54:48;7.75;;;4.43;;
38783;SDS011;24531;45.502;12.238;2024-03-06T13:57:14;7.03;;;4.50;;
38783;SDS011;24531;45.502;12.238;2024-03-06T13:59:41;7.63;;;4.75;;
38783;SDS011;24531;45.502;12.238;2024-03-06T14:02:07;7.75;;;4.05;;
38783;SDS011;24531;45.502;12.238;2024-03-06T14:04:33;6.93;;;4.30;;
38783;SDS011;24531;45.502;12.238;2024-03-06T14:06:59;10.35;;;4.28;;
38783;SDS011;24531;45.502;12.238;2024-03-06T14:09:25;5.15;;;4.00;;
38783;SDS011;24531;45.502;12.238;2024-03-06T14:11:52;6.10;;;3.67;;
38783;SDS011;24531;45.502;12.238;2024-03-06T14:14:18;4.18;;;3.35;;
38783;SDS011;24531;45.502;12.238;2024-03-06T14:16:44;6.70;;;4.40;;
38783;SDS011;24531;45.502;12.238;2024-03-06T14:19:10;6.95;;;3.88;;
38783;SDS011;24531;45.502;12.238;2024-03-06T14:21:36;7.50;;;3.90;;
38783;SDS011;24531;45.502;12.238;2024-03-06T14:24:02;7.57;;;3.70;;
38783;SDS011;24531;45.502;12.238;2024-03-06T14:26:29;5.05;;;3.70;;
38783;SDS011;24531;45.502;12.238;2024-03-06T14:28:55;7.80;;;3.90;;
38783;SDS011;24531;45.502;12.238;2024-03-06T14:31:22;4.32;;;3.42;;
38783;SDS011;24531;45.502;12.238;2024-03-06T14:33:47;8.23;;;3.47;;
38783;SDS011;24531;45.502;12.238;2024-03-06T14:36:14;7.68;;;4.07;;
38783;SDS011;24531;45.502;12.238;2024-03-06T14:38:39;7.97;;;3.40;;
38783;SDS011;24531;45.502;12.238;2024-03-06T14:41:05;5.75;;;3.90;;